createdAt,value
2023-01-15T00:01:43.843Z,7.90
2023-01-15T00:04:13.499Z,7.90
2023-01-15T00:06:41.221Z,8.00
2023-01-15T00:09:08.407Z,7.80
2023-01-15T00:11:35.037Z,7.50
2023-01-15T00:14:01.692Z,7.90
2023-01-15T00:16:28.510Z,7.90
2023-01-15T00:18:56.660Z,8.10
2023-01-15T00:21:23.911Z,7.90
2023-01-15T00:24:09.129Z,8.00
2023-01-15T00:26:55.190Z,8.70
2023-01-15T00:29:22.429Z,8.90
2023-01-15T00:31:59.515Z,8.90
2023-01-15T00:34:26.837Z,9.00
2023-01-15T00:36:54.011Z,9.20
2023-01-15T00:39:20.976Z,9.20
2023-01-15T00:41:47.703Z,9.20
2023-01-15T00:44:14.531Z,9.40
2023-01-15T00:46:41.375Z,9.10
2023-01-15T00:49:08.282Z,9.40
2023-01-15T00:51:35.188Z,9.60
2023-01-15T00:54:01.838Z,9.60
2023-01-15T00:56:28.518Z,9.30
2023-01-15T01:01:22.361Z,9.70
2023-01-15T01:03:52.530Z,9.60
2023-01-15T01:06:22.230Z,9.50
2023-01-15T01:08:48.881Z,9.90
2023-01-15T01:11:17.742Z,9.70
2023-01-15T01:16:37.905Z,10.10
2023-01-15T01:19:06.034Z,10.10
2023-01-15T01:21:32.997Z,9.80
2023-01-15T01:24:00.097Z,9.70
2023-01-15T01:26:27.221Z,9.90
2023-01-15T01:28:54.316Z,9.60
2023-01-15T01:31:21.387Z,9.90
2023-01-15T01:33:48.595Z,9.70
2023-01-15T01:36:15.411Z,10.00
2023-01-15T01:38:42.006Z,9.80
2023-01-15T01:41:08.594Z,9.80
2023-01-15T01:43:51.846Z,9.80
2023-01-15T01:46:19.065Z,10.00
2023-01-15T01:51:12.843Z,10.00
2023-01-15T01:53:39.499Z,9.60
2023-01-15T01:56:08.132Z,9.40
2023-01-15T01:58:35.721Z,10.40
2023-01-15T02:01:02.692Z,9.30
2023-01-15T02:03:35.449Z,9.30
2023-01-15T02:06:03.611Z,10.40
2023-01-15T02:08:32.393Z,9.30
2023-01-15T02:10:59.008Z,9.70
2023-01-15T02:13:37.275Z,10.20
2023-01-15T02:18:46.429Z,10.50
2023-01-15T02:21:23.967Z,10.60
2023-01-15T02:23:50.500Z,10.50
2023-01-15T02:26:23.085Z,10.00
2023-01-15T02:28:51.645Z,10.80
2023-01-15T02:31:21.360Z,10.80
2023-01-15T02:33:51.474Z,10.30
2023-01-15T02:36:20.134Z,10.30
2023-01-15T02:38:48.896Z,10.00
2023-01-15T02:41:17.868Z,9.60
2023-01-15T02:43:55.753Z,9.90
2023-01-15T02:46:25.190Z,9.70
2023-01-15T02:48:52.869Z,10.00
2023-01-15T02:51:25.302Z,10.30
2023-01-15T02:53:53.690Z,10.90
2023-01-15T02:56:21.933Z,9.90
2023-01-15T02:58:50.389Z,10.20
2023-01-15T03:01:19.484Z,10.00
2023-01-15T03:03:55.574Z,9.50
2023-01-15T03:06:26.226Z,10.40
2023-01-15T03:08:52.865Z,10.70
2023-01-15T03:11:19.990Z,9.40
2023-01-15T03:13:54.941Z,9.00
2023-01-15T03:16:35.989Z,10.30
2023-01-15T03:19:07.053Z,10.30
2023-01-15T03:21:43.346Z,9.70
2023-01-15T03:24:10.991Z,10.20
2023-01-15T03:26:37.626Z,9.80
2023-01-15T03:29:06.123Z,9.70
2023-01-15T03:31:33.904Z,9.80
2023-01-15T03:34:00.701Z,9.40
2023-01-15T03:36:27.292Z,9.30
2023-01-15T03:38:54.211Z,8.20
2023-01-15T03:41:32.980Z,8.90
2023-01-15T03:44:22.427Z,10.00
2023-01-15T03:46:55.177Z,10.00
2023-01-15T03:49:44.179Z,10.00
2023-01-15T03:52:22.225Z,10.10
2023-01-15T03:55:01.197Z,10.00
2023-01-15T03:57:28.293Z,9.90
2023-01-15T03:59:56.437Z,10.00
2023-01-15T04:02:23.700Z,9.50
2023-01-15T04:04:51.530Z,9.10
2023-01-15T04:07:18.475Z,9.40
2023-01-15T04:12:12.379Z,9.60
2023-01-15T04:14:39.020Z,8.00
2023-01-15T04:17:05.736Z,8.90
2023-01-15T04:19:32.335Z,8.80
2023-01-15T04:21:58.931Z,8.80
2023-01-15T04:24:25.841Z,9.10
2023-01-15T04:26:52.479Z,8.80
2023-01-15T04:29:19.840Z,8.60
2023-01-15T04:31:46.523Z,9.70
2023-01-15T04:34:13.209Z,8.80
2023-01-15T04:36:39.834Z,9.40
2023-01-15T04:39:06.437Z,9.00
2023-01-15T04:41:51.745Z,9.10
2023-01-15T04:44:18.359Z,8.70
2023-01-15T04:46:45.825Z,8.70
2023-01-15T04:49:16.552Z,8.90
2023-01-15T04:51:43.825Z,9.40
2023-01-15T04:54:11.183Z,8.70
2023-01-15T04:56:39.234Z,8.50
2023-01-15T04:59:05.822Z,8.10
2023-01-15T05:01:32.756Z,8.60
2023-01-15T05:03:59.405Z,7.80
2023-01-15T05:06:26.162Z,8.40
2023-01-15T05:08:53.114Z,8.90
2023-01-15T05:11:19.812Z,8.40
2023-01-15T05:13:46.452Z,8.80
2023-01-15T05:16:14.849Z,10.10
2023-01-15T05:18:42.443Z,9.40
2023-01-15T05:21:20.625Z,8.90
2023-01-15T05:23:47.872Z,9.40
2023-01-15T05:26:14.568Z,8.40
2023-01-15T05:28:41.327Z,8.80
2023-01-15T05:31:12.641Z,8.20
2023-01-15T05:33:39.603Z,8.50
2023-01-15T05:36:08.071Z,8.10
2023-01-15T05:38:34.983Z,8.00
2023-01-15T05:41:25.347Z,7.40
2023-01-15T05:43:51.907Z,7.70
2023-01-15T05:46:18.540Z,7.20
2023-01-15T05:48:45.303Z,6.50
2023-01-15T05:51:11.870Z,7.30
2023-01-15T05:53:38.520Z,7.00
2023-01-15T06:08:20.604Z,5.90
2023-01-15T06:10:47.353Z,5.60
2023-01-15T06:13:14.499Z,5.30
2023-01-15T06:15:41.811Z,5.60
2023-01-15T06:18:08.466Z,5.70
2023-01-15T06:25:29.174Z,5.70
2023-01-15T06:27:55.823Z,5.70
2023-01-15T06:30:22.451Z,5.80
2023-01-15T06:32:49.018Z,5.60
2023-01-15T06:35:15.679Z,5.70
2023-01-15T06:37:42.303Z,5.70
2023-01-15T06:40:10.224Z,5.60
2023-01-15T06:42:55.670Z,5.70
2023-01-15T06:45:40.609Z,5.70
2023-01-15T06:48:07.683Z,5.70
2023-01-15T06:50:34.334Z,5.70
2023-01-15T06:53:00.944Z,5.50
2023-01-15T06:55:27.533Z,5.40
2023-01-15T06:57:54.115Z,5.40
2023-01-15T07:00:20.859Z,5.50
2023-01-15T07:02:47.436Z,5.40
2023-01-15T07:05:14.067Z,5.50
2023-01-15T07:07:40.677Z,5.30
2023-01-15T07:10:07.507Z,5.30
2023-01-15T07:12:34.930Z,5.40
2023-01-15T07:15:01.568Z,5.30
2023-01-15T07:17:28.250Z,5.20
2023-01-15T07:19:54.878Z,5.50
2023-01-15T07:22:21.584Z,5.30
2023-01-15T07:24:48.266Z,5.20
2023-01-15T07:27:14.848Z,5.30
2023-01-15T07:29:41.420Z,5.30
2023-01-15T07:32:08.045Z,5.20
2023-01-15T07:34:34.650Z,5.30
2023-01-15T07:37:01.279Z,5.40
2023-01-15T07:39:28.591Z,5.50
2023-01-15T07:42:13.896Z,5.30
2023-01-15T07:44:58.974Z,5.20
2023-01-15T07:47:44.622Z,5.10
2023-01-15T07:50:15.797Z,5.20
2023-01-15T07:52:42.429Z,4.90
2023-01-15T07:55:10.091Z,5.10
2023-01-15T07:57:37.159Z,5.20
2023-01-15T08:00:04.578Z,4.90
2023-01-15T08:02:31.236Z,5.00
2023-01-15T08:04:57.877Z,4.50
2023-01-15T08:07:25.028Z,4.50
2023-01-15T08:09:51.677Z,4.60
2023-01-15T08:12:37.220Z,4.40
2023-01-15T08:15:16.627Z,4.10
2023-01-15T08:17:44.785Z,4.90
2023-01-15T08:20:15.954Z,4.70
2023-01-15T08:22:44.256Z,4.70
2023-01-15T08:25:12.023Z,4.60
2023-01-15T08:27:38.920Z,4.30
2023-01-15T08:30:06.419Z,4.50
2023-01-15T08:32:32.999Z,5.00
2023-01-15T08:34:59.666Z,4.10
2023-01-15T08:37:26.304Z,4.20
2023-01-15T08:39:54.716Z,4.40
2023-01-15T08:42:21.634Z,4.30
2023-01-15T08:47:15.753Z,4.70
2023-01-15T08:49:42.449Z,4.50
2023-01-15T08:52:09.520Z,4.50
2023-01-15T08:54:36.171Z,4.50
2023-01-15T08:57:02.815Z,4.70
2023-01-15T08:59:29.470Z,4.80
2023-01-15T09:01:56.181Z,5.00
2023-01-15T09:04:22.945Z,5.30
2023-01-15T09:06:49.774Z,4.80
2023-01-15T09:09:16.428Z,4.50
2023-01-15T09:11:44.328Z,4.10
2023-01-15T09:14:59.171Z,4.20
2023-01-15T09:16:59.748Z,4.10
2023-01-15T09:19:26.376Z,4.20
2023-01-15T09:21:53.010Z,4.20
2023-01-15T09:24:19.592Z,4.40
2023-01-15T09:26:46.208Z,4.30
2023-01-15T09:29:12.886Z,4.20
2023-01-15T09:31:39.505Z,4.00
2023-01-15T09:34:06.173Z,3.80
2023-01-15T09:36:34.265Z,4.10
2023-01-15T09:39:01.583Z,4.50
2023-01-15T09:41:57.795Z,3.80
2023-01-15T09:44:36.732Z,4.00
2023-01-15T09:47:06.405Z,4.10
2023-01-15T09:49:56.010Z,4.00
2023-01-15T09:55:15.999Z,3.90
2023-01-15T09:57:43.016Z,3.80
2023-01-15T10:00:15.937Z,3.50
2023-01-15T10:05:15.706Z,3.40
2023-01-15T10:10:11.335Z,3.40
2023-01-15T10:12:43.357Z,3.50
2023-01-15T10:15:13.013Z,3.50
2023-01-15T10:17:42.032Z,3.50
2023-01-15T10:20:27.471Z,3.30
2023-01-15T10:23:06.326Z,3.50
2023-01-15T10:25:38.040Z,3.50
2023-01-15T10:28:20.037Z,3.60
2023-01-15T10:30:50.523Z,3.60
2023-01-15T10:33:34.556Z,3.70
2023-01-15T10:36:04.068Z,3.60
2023-01-15T10:38:39.450Z,3.40
2023-01-15T10:41:11.808Z,3.50
2023-01-15T10:43:41.376Z,3.40
2023-01-15T10:46:11.555Z,3.40
2023-01-15T10:48:46.169Z,3.50
2023-01-15T10:51:14.842Z,3.40
2023-01-15T10:53:41.437Z,3.30
2023-01-15T10:56:13.879Z,3.30
2023-01-15T10:58:45.366Z,3.30
2023-01-15T11:01:17.095Z,3.10
2023-01-15T11:03:44.633Z,3.30
2023-01-15T11:06:16.234Z,3.70
2023-01-15T11:12:18.582Z,3.30
2023-01-15T11:15:04.842Z,3.40
2023-01-15T11:18:10.302Z,3.40
2023-01-15T11:20:42.930Z,3.40
2023-01-15T11:23:14.485Z,3.70
2023-01-15T11:25:48.333Z,3.60
2023-01-15T11:28:15.565Z,3.40
2023-01-15T11:30:42.594Z,3.30
2023-01-15T11:33:26.774Z,3.00
2023-01-15T11:35:58.704Z,3.40
2023-01-15T11:38:26.364Z,3.50
2023-01-15T11:41:00.001Z,3.40
2023-01-15T11:43:46.445Z,3.50
2023-01-15T11:46:57.759Z,3.20
2023-01-15T11:49:42.864Z,3.50
2023-01-15T11:52:22.777Z,3.20
2023-01-15T11:54:51.541Z,3.50
2023-01-15T11:57:31.905Z,3.50
2023-01-15T11:59:59.303Z,3.70
2023-01-15T12:02:34.178Z,4.20
2023-01-15T12:05:02.191Z,3.70
2023-01-15T12:07:29.021Z,3.50
2023-01-15T12:10:15.695Z,3.70
2023-01-15T12:12:48.102Z,3.90
2023-01-15T12:15:33.753Z,3.60
2023-01-15T12:18:00.311Z,3.70
2023-01-15T12:20:29.683Z,3.30
2023-01-15T12:23:08.964Z,3.50
2023-01-15T12:25:59.109Z,3.50
2023-01-15T12:28:33.736Z,3.60
2023-01-15T12:31:04.729Z,3.80
2023-01-15T12:33:43.312Z,3.70
2023-01-15T12:36:18.560Z,3.90
2023-01-15T12:38:53.784Z,3.90
2023-01-15T12:41:56.533Z,3.90
2023-01-15T12:44:54.532Z,3.80
2023-01-15T12:47:24.454Z,3.70
2023-01-15T12:50:03.986Z,3.70
2023-01-15T12:52:35.729Z,3.70
2023-01-15T12:55:22.562Z,3.50
2023-01-15T12:57:54.952Z,3.60
2023-01-15T13:00:27.619Z,3.90
2023-01-15T13:02:57.918Z,3.90
2023-01-15T13:05:48.574Z,3.50
2023-01-15T13:08:33.092Z,3.80
2023-01-15T13:11:04.147Z,3.80
2023-01-15T13:13:39.383Z,3.80
2023-01-15T13:16:25.007Z,3.70
2023-01-15T13:18:52.015Z,3.80
2023-01-15T13:21:20.251Z,3.70
2023-01-15T13:23:52.812Z,3.70
2023-01-15T13:26:26.701Z,3.70
2023-01-15T13:29:04.474Z,3.70
2023-01-15T13:31:55.256Z,3.60
2023-01-15T13:34:42.556Z,3.70
2023-01-15T13:37:34.569Z,3.60
2023-01-15T13:43:39.802Z,3.50
2023-01-15T13:49:37.468Z,3.60
2023-01-15T13:52:35.581Z,3.50
2023-01-15T13:55:26.012Z,3.50
2023-01-15T14:01:28.539Z,3.50
2023-01-15T14:04:37.302Z,3.60
2023-01-15T14:07:06.893Z,3.60
2023-01-15T14:09:47.181Z,3.10
2023-01-15T14:12:19.432Z,3.60
2023-01-15T14:15:04.875Z,3.50
2023-01-15T14:17:37.861Z,3.50
2023-01-15T14:20:04.518Z,4.00
2023-01-15T14:22:52.873Z,4.50
2023-01-15T14:25:38.445Z,4.00
2023-01-15T14:28:24.428Z,4.40
2023-01-15T14:31:02.776Z,4.50
2023-01-15T14:33:38.582Z,4.30
2023-01-15T14:36:17.057Z,4.10
2023-01-15T14:38:48.829Z,4.10
2023-01-15T14:41:15.664Z,3.90
2023-01-15T14:43:48.120Z,3.40
2023-01-15T14:46:34.133Z,4.30
2023-01-15T14:49:01.246Z,3.60
2023-01-15T14:51:29.416Z,4.00
2023-01-15T14:54:01.212Z,2.90
2023-01-15T14:56:51.043Z,3.60
2023-01-15T14:59:36.041Z,3.40
2023-01-15T15:02:06.665Z,3.50
2023-01-15T15:04:40.717Z,3.60
2023-01-15T15:07:18.307Z,3.40
2023-01-15T15:10:05.059Z,3.60
2023-01-15T15:12:35.427Z,3.60
2023-01-15T15:15:10.946Z,3.80
2023-01-15T15:17:41.187Z,3.30
2023-01-15T15:20:31.455Z,3.20
2023-01-15T15:23:04.716Z,3.30
2023-01-15T15:25:33.473Z,4.00
2023-01-15T15:28:04.225Z,3.10
2023-01-15T15:30:32.032Z,3.20
2023-01-15T15:32:59.809Z,3.50
2023-01-15T15:35:28.986Z,3.10
2023-01-15T15:37:56.236Z,3.00
2023-01-15T15:40:25.601Z,2.90
2023-01-15T15:43:28.079Z,2.70
2023-01-15T15:46:14.694Z,2.90
2023-01-15T15:48:52.949Z,2.70
2023-01-15T15:51:22.587Z,2.90
2023-01-15T15:53:49.388Z,2.80
2023-01-15T15:56:16.036Z,2.80
2023-01-15T15:58:42.878Z,3.40
2023-01-15T16:01:13.388Z,2.70
2023-01-15T16:03:48.729Z,2.70
2023-01-15T16:08:51.413Z,2.70
2023-01-15T16:11:30.276Z,2.60
2023-01-15T16:13:59.509Z,2.70
2023-01-15T16:16:27.214Z,2.60
2023-01-15T16:18:56.012Z,2.50
2023-01-15T16:21:33.594Z,2.70
2023-01-15T16:24:05.129Z,2.60
2023-01-15T16:26:37.323Z,2.70
2023-01-15T16:29:05.191Z,2.60
2023-01-15T16:31:35.355Z,3.70
2023-01-15T16:34:02.339Z,2.80
2023-01-15T16:36:37.398Z,2.70
2023-01-15T16:39:05.263Z,2.50
2023-01-15T16:41:37.758Z,3.00
2023-01-15T16:44:05.308Z,2.90
2023-01-15T16:46:33.704Z,3.10
2023-01-15T16:49:19.971Z,2.90
2023-01-15T16:51:46.758Z,3.10
2023-01-15T16:54:31.674Z,2.90
2023-01-15T16:56:59.382Z,3.10
2023-01-15T16:59:26.057Z,3.10
2023-01-15T17:01:56.604Z,3.00
2023-01-15T17:04:32.484Z,3.00
2023-01-15T17:07:06.521Z,3.20
2023-01-15T17:09:34.557Z,3.20
2023-01-15T17:12:03.914Z,3.80
2023-01-15T17:14:30.567Z,3.30
2023-01-15T17:17:26.936Z,4.10
2023-01-15T17:19:54.899Z,3.30
2023-01-15T17:22:26.347Z,4.20
2023-01-15T17:24:54.174Z,3.40
2023-01-15T17:27:20.848Z,3.40
2023-01-15T17:29:47.802Z,3.20
2023-01-15T17:32:15.968Z,3.50
2023-01-15T17:34:42.554Z,3.30
2023-01-15T17:37:09.299Z,3.30
2023-01-15T17:39:35.911Z,2.80
2023-01-15T17:42:02.585Z,3.30
2023-01-15T17:44:29.179Z,3.00
2023-01-15T17:46:55.809Z,3.10
2023-01-15T17:49:22.405Z,3.30
2023-01-15T17:51:49.068Z,3.30
2023-01-15T17:54:35.650Z,3.00
2023-01-15T17:57:22.889Z,3.20
2023-01-15T18:00:12.508Z,4.30
2023-01-15T18:03:06.026Z,3.20
2023-01-15T18:05:44.346Z,3.30
2023-01-15T18:08:25.565Z,3.40
2023-01-15T18:13:35.623Z,3.20
2023-01-15T18:16:11.326Z,3.20
2023-01-15T18:18:38.149Z,3.20
2023-01-15T18:21:14.607Z,3.20
2023-01-15T18:30:05.192Z,2.80
2023-01-15T18:32:37.987Z,2.80
2023-01-15T18:35:06.456Z,3.20
2023-01-15T18:37:33.628Z,3.10
2023-01-15T18:40:00.760Z,3.20
2023-01-15T18:43:04.405Z,2.80
2023-01-15T18:46:04.698Z,3.10
2023-01-15T18:49:05.945Z,3.10
2023-01-15T18:51:32.680Z,3.00
2023-01-15T18:53:59.345Z,2.90
2023-01-15T18:56:44.238Z,2.90
2023-01-15T18:59:12.073Z,2.70
2023-01-15T19:01:39.637Z,2.70
2023-01-15T19:04:06.976Z,2.50
2023-01-15T19:06:34.086Z,2.50
2023-01-15T19:09:01.253Z,2.40
2023-01-15T19:11:28.334Z,2.50
2023-01-15T19:26:45.827Z,2.80
2023-01-15T19:32:43.781Z,2.80
2023-01-15T19:42:13.743Z,2.60
2023-01-15T19:45:11.613Z,2.50
2023-01-15T19:48:04.965Z,2.80
2023-01-15T19:50:40.992Z,2.50
2023-01-15T19:53:14.497Z,2.70
2023-01-15T19:58:27.436Z,2.50
2023-01-15T20:00:59.402Z,2.30
2023-01-15T20:03:26.327Z,2.80
2023-01-15T20:08:42.521Z,2.70
2023-01-15T20:11:21.443Z,2.80
2023-01-15T20:14:19.101Z,2.80
2023-01-15T20:16:57.599Z,3.70
2023-01-15T20:19:27.706Z,2.80
2023-01-15T20:22:01.804Z,3.00
2023-01-15T20:24:29.475Z,2.70
2023-01-15T20:30:02.339Z,2.90
2023-01-15T20:32:29.601Z,3.80
2023-01-15T20:35:03.032Z,2.80
2023-01-15T20:37:43.002Z,2.70
2023-01-15T20:40:19.629Z,2.70
2023-01-15T20:43:29.537Z,2.60
2023-01-15T20:46:16.484Z,3.00
2023-01-15T20:49:23.727Z,2.70
2023-01-15T20:51:55.784Z,2.60
2023-01-15T20:54:38.613Z,2.90
2023-01-15T20:57:11.275Z,2.80
2023-01-15T20:59:50.353Z,4.10
2023-01-15T21:05:33.447Z,2.60
2023-01-15T21:11:00.067Z,2.50
2023-01-15T21:13:38.661Z,2.70
2023-01-15T21:19:28.084Z,2.70
2023-01-15T21:25:13.370Z,2.50
2023-01-15T21:27:40.204Z,2.50
2023-01-15T21:30:10.280Z,2.60
2023-01-15T21:32:41.789Z,2.70
2023-01-15T21:35:08.451Z,2.50
2023-01-15T21:37:45.068Z,2.60
2023-01-15T21:40:14.776Z,2.50
2023-01-15T21:45:34.969Z,2.50
2023-01-15T21:48:06.914Z,2.50
2023-01-15T21:50:38.730Z,2.40
2023-01-15T21:53:11.573Z,2.40
2023-01-15T21:55:56.831Z,2.40
2023-01-15T21:58:23.400Z,2.40
2023-01-15T22:00:53.027Z,2.30
2023-01-15T22:03:19.659Z,2.20
2023-01-15T22:05:46.316Z,2.40
2023-01-15T22:08:12.975Z,2.10
2023-01-15T22:10:39.698Z,2.10
2023-01-15T22:13:06.356Z,1.80
2023-01-15T22:15:33.004Z,1.90
2023-01-15T22:17:59.608Z,2.00
2023-01-15T22:20:26.208Z,1.80
2023-01-15T22:22:52.971Z,2.20
2023-01-15T22:25:19.817Z,2.20
2023-01-15T22:27:46.461Z,2.30
2023-01-15T22:30:13.716Z,2.40
2023-01-15T22:32:40.372Z,2.40
2023-01-15T22:35:07.553Z,2.40
2023-01-15T22:37:34.290Z,2.30
2023-01-15T22:40:00.907Z,2.20
2023-01-15T22:42:28.020Z,2.30
2023-01-15T22:44:56.119Z,2.40
2023-01-15T22:47:23.246Z,2.50
2023-01-15T22:49:50.138Z,2.50
2023-01-15T22:52:16.999Z,2.50
2023-01-15T22:54:45.361Z,2.40
2023-01-15T22:57:13.092Z,2.50
2023-01-15T22:59:39.987Z,2.40
2023-01-15T23:02:06.745Z,2.60
2023-01-15T23:04:33.615Z,2.60
2023-01-15T23:07:00.499Z,2.50
2023-01-15T23:09:27.179Z,2.40
2023-01-15T23:11:53.777Z,2.40
2023-01-15T23:14:21.267Z,2.30
2023-01-15T23:16:48.010Z,2.40
2023-01-15T23:19:14.691Z,2.40
2023-01-15T23:21:41.767Z,2.50
2023-01-15T23:24:08.607Z,2.40
2023-01-15T23:26:35.462Z,2.90
2023-01-15T23:29:02.374Z,2.60
2023-01-15T23:31:29.528Z,2.60
2023-01-15T23:33:56.267Z,2.70
2023-01-15T23:36:23.432Z,2.60
2023-01-15T23:38:50.171Z,2.60
2023-01-15T23:41:17.929Z,2.60
2023-01-15T23:44:03.386Z,2.70
2023-01-15T23:46:33.466Z,2.70
2023-01-15T23:49:03.164Z,2.60
2023-01-15T23:51:30.205Z,2.60
2023-01-15T23:53:56.911Z,2.60
2023-01-15T23:56:23.529Z,2.50
2023-01-15T23:58:50.213Z,2.60
